Time;durP1;ratioP1;P1;durP2;ratioP2;P2;SDS_P1;SDS_P2;PMS_P1;PMS_P2;Temp;Humidity;BMP_temperature;BMP_pressure;BME280_temperature;BME280_humidity;BME280_pressure;Samples;Min_cycle;Max_cycle;Signal;HPM_P1;HPM_P2
2023/09/30 00:00:48;;;;;;;4.33;0.93;;;17.00;99.90;;;;;;5219316;28;20457;-49
2023/09/30 00:03:19;;;;;;;8.93;1.60;;;17.10;99.90;;;;;;5200708;28;20242;-48
2023/09/30 00:05:49;;;;;;;1.07;1.07;;;17.10;99.90;;;;;;5206048;28;20283;-49
2023/09/30 00:08:20;;;;;;;3.20;1.63;;;17.00;99.90;;;;;;5205117;28;20241;-51
2023/09/30 00:10:53;;;;;;;1.27;1.00;;;16.90;99.90;;;;;;5209590;28;20196;-49
2023/09/30 00:13:23;;;;;;;5.07;1.40;;;16.90;99.90;;;;;;5199328;28;20189;-49
2023/09/30 00:15:54;;;;;;;7.80;1.70;;;16.90;99.90;;;;;;5208491;28;20431;-48
2023/09/30 00:18:25;;;;;;;2.80;1.93;;;16.90;99.90;;;;;;5200130;28;20184;-48
2023/09/30 00:20:57;;;;;;;2.63;1.30;;;16.70;99.90;;;;;;5203643;28;20183;-48
2023/09/30 00:23:28;;;;;;;7.63;2.33;;;16.70;99.90;;;;;;5202533;28;20608;-49
2023/09/30 00:26:02;;;;;;;4.57;2.10;;;16.60;99.90;;;;;;5207323;28;20434;-50
2023/09/30 00:28:33;;;;;;;9.10;1.77;;;16.60;99.90;;;;;;5196129;28;20437;-49
2023/09/30 00:31:09;;;;;;;2.70;1.80;;;16.60;99.90;;;;;;5207621;28;20458;-48
2023/09/30 00:33:39;;;;;;;5.50;1.93;;;16.50;99.90;;;;;;5193070;28;20266;-48
2023/09/30 00:36:11;;;;;;;5.20;2.73;;;16.40;99.90;;;;;;5204061;28;20569;-49
2023/09/30 00:38:42;;;;;;;4.10;1.90;;;16.30;99.90;;;;;;5201041;28;20248;-48
2023/09/30 00:41:13;;;;;;;8.93;2.53;;;16.10;99.90;;;;;;5205570;28;20483;-48
2023/09/30 00:43:46;;;;;;;6.43;2.50;;;16.00;99.90;;;;;;5203713;28;20179;-49
2023/09/30 00:46:29;;;;;;;10.10;2.50;;;16.00;99.90;;;;;;5202994;28;20461;-49
2023/09/30 00:49:02;;;;;;;15.70;3.43;;;15.90;99.90;;;;;;5196011;28;20448;-48
2023/09/30 00:51:33;;;;;;;6.13;1.80;;;15.80;99.90;;;;;;5206226;28;20969;-48
2023/09/30 00:54:05;;;;;;;5.80;2.77;;;15.80;99.90;;;;;;5202430;28;20438;-49
2023/09/30 00:56:43;;;;;;;9.40;2.37;;;15.60;99.90;;;;;;5204237;28;20513;-48
2023/09/30 00:59:14;;;;;;;4.43;2.40;;;15.60;99.90;;;;;;5219252;28;20634;-49
2023/09/30 01:01:46;;;;;;;5.07;1.90;;;15.50;99.90;;;;;;5197276;28;21111;-49
2023/09/30 01:04:18;;;;;;;10.30;2.50;;;15.40;99.90;;;;;;5202526;28;20434;-48
2023/09/30 01:06:48;;;;;;;13.63;2.60;;;15.40;99.90;;;;;;5202762;28;20430;-47
2023/09/30 01:09:20;;;;;;;4.70;2.87;;;15.30;99.90;;;;;;5204938;28;20454;-49
2023/09/30 01:11:51;;;;;;;6.63;2.23;;;15.30;99.90;;;;;;5198156;28;20299;-48
2023/09/30 01:14:27;;;;;;;6.97;3.60;;;15.20;99.90;;;;;;5201025;28;20933;-48
2023/09/30 01:16:58;;;;;;;9.10;2.90;;;15.10;99.90;;;;;;5181621;28;20898;-47
2023/09/30 01:19:29;;;;;;;5.50;2.73;;;15.10;99.90;;;;;;5206782;28;20537;-49
2023/09/30 01:22:00;;;;;;;5.70;2.47;;;15.10;99.90;;;;;;5206494;28;20230;-49
2023/09/30 01:24:30;;;;;;;13.70;2.90;;;14.90;99.90;;;;;;5203517;28;20191;-48
2023/09/30 01:27:02;;;;;;;5.27;2.17;;;14.90;99.90;;;;;;5205608;28;20191;-48
2023/09/30 01:29:32;;;;;;;7.93;3.33;;;14.90;99.90;;;;;;5190082;28;20667;-50
2023/09/30 01:32:05;;;;;;;8.60;2.20;;;14.90;99.90;;;;;;5199497;28;20489;-48
2023/09/30 01:34:36;;;;;;;4.37;2.93;;;14.80;99.90;;;;;;5206430;28;20175;-48
2023/09/30 01:37:07;;;;;;;16.90;2.73;;;14.80;99.90;;;;;;5201498;28;20519;-49
2023/09/30 01:39:37;;;;;;;6.07;2.67;;;14.80;99.90;;;;;;5196846;28;20530;-50
2023/09/30 01:42:08;;;;;;;11.83;3.07;;;14.70;99.90;;;;;;5205740;28;20187;-48
2023/09/30 01:44:39;;;;;;;6.43;3.33;;;14.70;99.90;;;;;;5204721;28;20184;-49
2023/09/30 01:47:09;;;;;;;9.37;2.73;;;14.70;99.90;;;;;;5205485;28;20182;-49
2023/09/30 01:49:40;;;;;;;8.43;3.07;;;14.70;99.90;;;;;;5201287;28;20286;-48
2023/09/30 01:52:11;;;;;;;10.43;3.33;;;14.60;99.90;;;;;;5201903;28;20629;-48
2023/09/30 01:54:42;;;;;;;4.53;2.20;;;14.50;99.90;;;;;;5202034;28;20434;-48
2023/09/30 01:57:13;;;;;;;4.60;2.30;;;14.50;99.90;;;;;;5211869;28;20180;-50
2023/09/30 01:59:44;;;;;;;11.13;2.30;;;14.50;99.90;;;;;;5203017;28;20255;-48
2023/09/30 02:02:15;;;;;;;9.20;3.30;;;14.50;99.90;;;;;;5202608;28;20426;-47
2023/09/30 02:04:46;;;;;;;13.03;3.13;;;14.40;99.90;;;;;;5187284;28;20179;-47
2023/09/30 02:07:17;;;;;;;10.63;2.80;;;14.50;99.90;;;;;;5197220;28;20799;-49
2023/09/30 02:09:48;;;;;;;20.97;3.03;;;14.40;99.90;;;;;;5199605;28;20202;-48
2023/09/30 02:12:19;;;;;;;13.00;3.17;;;14.30;99.90;;;;;;5193410;28;20217;-49
2023/09/30 02:14:50;;;;;;;9.10;2.80;;;14.30;99.90;;;;;;5201382;28;20435;-48
2023/09/30 02:17:21;;;;;;;11.20;3.33;;;14.20;99.90;;;;;;5202065;28;20190;-49
2023/09/30 02:19:53;;;;;;;11.07;3.63;;;14.20;99.90;;;;;;5203174;28;20450;-51
2023/09/30 02:22:24;;;;;;;10.33;2.97;;;14.20;99.90;;;;;;5199647;28;20426;-47
2023/09/30 02:24:55;;;;;;;11.43;2.93;;;14.20;99.90;;;;;;5204140;28;20926;-48
2023/09/30 02:27:28;;;;;;;11.30;2.90;;;14.20;99.90;;;;;;5198962;28;20509;-48
2023/09/30 02:29:58;;;;;;;7.13;2.77;;;14.10;99.90;;;;;;5193262;28;20469;-48
2023/09/30 02:32:29;;;;;;;8.70;3.00;;;14.00;99.90;;;;;;5193288;28;20509;-51
2023/09/30 02:35:00;;;;;;;6.27;2.50;;;14.00;99.90;;;;;;5195689;28;20204;-49
2023/09/30 02:37:35;;;;;;;11.33;2.93;;;14.00;99.90;;;;;;5199909;28;20179;-49
2023/09/30 02:40:10;;;;;;;11.57;3.50;;;14.00;99.90;;;;;;5186528;28;20203;-47
2023/09/30 02:42:41;;;;;;;7.87;2.47;;;13.90;99.90;;;;;;5204524;28;20434;-49
2023/09/30 02:45:12;;;;;;;9.83;3.90;;;14.00;99.90;;;;;;5198765;28;20483;-49
2023/09/30 02:47:43;;;;;;;28.83;3.90;;;13.90;99.90;;;;;;5200569;28;20442;-48
2023/09/30 02:50:14;;;;;;;7.67;2.70;;;14.00;99.90;;;;;;5198581;28;20462;-50
2023/09/30 02:52:45;;;;;;;8.53;2.90;;;13.90;99.90;;;;;;5204122;28;20179;-47
2023/09/30 02:55:16;;;;;;;12.07;3.47;;;13.90;99.90;;;;;;5192648;28;20177;-47
2023/09/30 02:57:46;;;;;;;12.80;3.10;;;13.80;99.90;;;;;;5213043;28;20443;-48
2023/09/30 03:00:25;;;;;;;7.93;3.13;;;13.80;99.90;;;;;;5207593;28;20242;-49
2023/09/30 03:02:56;;;;;;;12.07;3.27;;;13.80;99.90;;;;;;5201199;28;20457;-50
2023/09/30 03:05:30;;;;;;;11.00;4.13;;;13.70;99.90;;;;;;5207321;28;20434;-53
2023/09/30 03:08:01;;;;;;;13.90;3.47;;;13.60;99.90;;;;;;5205568;28;20187;-48
2023/09/30 03:10:31;;;;;;;6.77;3.07;;;13.60;99.90;;;;;;5201802;28;20466;-48
2023/09/30 03:13:03;;;;;;;8.60;3.37;;;13.60;99.90;;;;;;5206313;28;20180;-49
2023/09/30 03:15:33;;;;;;;6.90;3.37;;;13.60;99.90;;;;;;5208146;28;20258;-48
2023/09/30 03:18:05;;;;;;;11.20;2.80;;;13.60;99.90;;;;;;5208606;28;20535;-48
2023/09/30 03:20:40;;;;;;;18.00;3.57;;;13.60;99.90;;;;;;5192637;28;20310;-49
2023/09/30 03:23:14;;;;;;;4.67;3.27;;;13.60;99.90;;;;;;5204978;28;20436;-49
2023/09/30 03:25:44;;;;;;;16.53;3.97;;;13.60;99.90;;;;;;5202564;28;20442;-48
2023/09/30 03:28:15;;;;;;;8.40;3.23;;;13.50;99.90;;;;;;5200152;28;20451;-50
2023/09/30 03:30:45;;;;;;;8.90;3.17;;;13.50;99.90;;;;;;5202056;28;20209;-49
2023/09/30 03:33:17;;;;;;;14.23;3.63;;;13.60;99.90;;;;;;5206147;28;20226;-47
2023/09/30 03:35:48;;;;;;;13.27;3.40;;;13.50;99.90;;;;;;5205357;28;20184;-48
2023/09/30 03:38:19;;;;;;;9.83;3.97;;;13.50;99.90;;;;;;5203363;28;20492;-49
2023/09/30 03:40:50;;;;;;;10.43;3.90;;;13.50;99.90;;;;;;5207578;28;20199;-51
2023/09/30 03:43:22;;;;;;;13.77;2.97;;;13.40;99.90;;;;;;5203410;28;20947;-48
2023/09/30 03:45:53;;;;;;;19.17;4.27;;;13.40;99.90;;;;;;5202149;28;20184;-47
2023/09/30 03:48:24;;;;;;;11.90;3.40;;;13.40;99.90;;;;;;5209053;28;20442;-47
2023/09/30 03:50:55;;;;;;;12.27;3.73;;;13.40;99.90;;;;;;5205668;28;20458;-49
2023/09/30 03:53:26;;;;;;;12.33;3.30;;;13.40;99.90;;;;;;5202577;28;20254;-49
2023/09/30 03:55:57;;;;;;;18.23;3.87;;;13.30;99.90;;;;;;5202727;28;20263;-48
2023/09/30 03:58:27;;;;;;;20.70;3.97;;;13.30;99.90;;;;;;5202355;28;21017;-49
2023/09/30 04:01:04;;;;;;;10.73;2.80;;;13.30;99.90;;;;;;5203318;28;20674;-48
2023/09/30 04:03:34;;;;;;;8.23;3.30;;;13.30;99.90;;;;;;5204720;28;20660;-48
2023/09/30 04:06:09;;;;;;;6.87;3.10;;;13.30;99.90;;;;;;5205251;28;20476;-47
2023/09/30 04:08:40;;;;;;;9.27;3.40;;;13.30;99.90;;;;;;5203843;28;20264;-49
2023/09/30 04:11:16;;;;;;;7.77;3.87;;;13.30;99.90;;;;;;5201617;28;20473;-48
2023/09/30 04:13:47;;;;;;;15.67;3.67;;;13.20;99.90;;;;;;5205619;28;20465;-49
2023/09/30 04:16:19;;;;;;;10.50;4.47;;;13.20;99.90;;;;;;5197430;28;20518;-48
2023/09/30 04:18:50;;;;;;;16.13;4.90;;;13.10;99.90;;;;;;5201270;28;20218;-48
2023/09/30 04:21:20;;;;;;;13.40;4.57;;;13.10;99.90;;;;;;5200468;28;20445;-49
2023/09/30 04:23:51;;;;;;;9.20;4.00;;;13.10;99.90;;;;;;5209053;28;20172;-47
2023/09/30 04:26:22;;;;;;;9.20;3.57;;;13.10;99.90;;;;;;5209039;28;20188;-49
2023/09/30 04:28:53;;;;;;;12.77;4.30;;;13.10;99.90;;;;;;5210266;28;20210;-47
2023/09/30 04:31:23;;;;;;;4.70;2.80;;;13.10;99.90;;;;;;5203058;28;20208;-49
2023/09/30 04:33:54;;;;;;;10.53;3.27;;;13.10;99.90;;;;;;5207498;28;20183;-49
2023/09/30 04:36:25;;;;;;;10.90;4.17;;;13.00;99.90;;;;;;5203366;28;20188;-48
2023/09/30 04:38:56;;;;;;;23.63;3.57;;;13.10;99.90;;;;;;5206772;28;20206;-50
2023/09/30 04:41:27;;;;;;;14.37;3.97;;;13.00;99.90;;;;;;5191752;28;20229;-49
2023/09/30 04:43:57;;;;;;;15.10;4.23;;;13.00;99.90;;;;;;5208011;28;20187;-49
2023/09/30 04:46:28;;;;;;;8.30;3.67;;;13.00;99.90;;;;;;5202816;28;20192;-48
2023/09/30 04:48:59;;;;;;;13.53;3.60;;;12.90;99.90;;;;;;5208068;28;20212;-47
2023/09/30 04:51:32;;;;;;;10.73;3.60;;;12.90;99.90;;;;;;5190855;28;20222;-48
2023/09/30 04:54:06;;;;;;;10.40;3.67;;;12.90;99.90;;;;;;5200227;28;20657;-47
2023/09/30 04:56:38;;;;;;;22.87;4.20;;;12.80;99.90;;;;;;5208995;28;20426;-48
2023/09/30 04:59:09;;;;;;;15.20;4.83;;;12.80;99.90;;;;;;5202080;28;20833;-50
2023/09/30 05:01:40;;;;;;;11.27;4.23;;;12.80;99.90;;;;;;5203585;28;20434;-50
2023/09/30 05:04:10;;;;;;;19.77;4.13;;;12.80;99.90;;;;;;5204032;28;20233;-49
2023/09/30 05:06:41;;;;;;;20.57;4.63;;;12.80;99.90;;;;;;5202184;28;20242;-52
2023/09/30 05:09:12;;;;;;;17.90;4.60;;;12.80;99.90;;;;;;5207032;28;20236;-50
2023/09/30 05:11:44;;;;;;;10.70;4.77;;;12.90;99.90;;;;;;5204209;28;20235;-50
2023/09/30 05:14:16;;;;;;;10.30;3.90;;;12.90;99.90;;;;;;5203238;28;20203;-50
2023/09/30 05:16:47;;;;;;;8.70;4.60;;;12.90;99.90;;;;;;5195461;28;20453;-51
2023/09/30 05:19:18;;;;;;;14.20;5.20;;;12.90;99.90;;;;;;5218419;28;20462;-51
2023/09/30 05:21:48;;;;;;;16.27;4.30;;;12.90;99.90;;;;;;5201970;28;20778;-51
2023/09/30 05:24:19;;;;;;;12.30;5.77;;;12.90;99.90;;;;;;5200088;28;20550;-51
2023/09/30 05:26:50;;;;;;;8.30;3.33;;;12.90;99.90;;;;;;5198854;28;20184;-50
2023/09/30 05:29:20;;;;;;;7.40;3.53;;;13.00;99.90;;;;;;5213014;28;20234;-50
2023/09/30 05:31:51;;;;;;;18.30;3.90;;;13.00;99.90;;;;;;5200262;28;20221;-50
2023/09/30 05:34:22;;;;;;;21.83;4.90;;;13.10;99.90;;;;;;5196055;28;20643;-50
2023/09/30 05:36:53;;;;;;;14.30;3.33;;;13.20;99.90;;;;;;5201537;28;20184;-49
2023/09/30 05:39:25;;;;;;;13.50;3.00;;;13.20;99.90;;;;;;5197662;28;20218;-47
2023/09/30 05:41:55;;;;;;;10.80;4.33;;;13.30;99.90;;;;;;5216826;28;20202;-48
2023/09/30 05:44:27;;;;;;;9.23;4.50;;;13.40;99.90;;;;;;5186217;28;20427;-48
2023/09/30 05:46:59;;;;;;;21.03;3.90;;;13.50;99.90;;;;;;5198104;28;20546;-48
2023/09/30 05:49:30;;;;;;;9.47;3.20;;;13.60;99.90;;;;;;5195988;28;20458;-50
2023/09/30 05:52:02;;;;;;;9.30;3.70;;;13.70;99.90;;;;;;5199200;28;20585;-50
2023/09/30 05:54:32;;;;;;;10.67;3.70;;;13.90;99.90;;;;;;5195856;28;20186;-48
2023/09/30 05:57:03;;;;;;;29.20;3.80;;;14.00;99.90;;;;;;5201124;28;20521;-50
2023/09/30 05:59:34;;;;;;;17.00;4.37;;;14.20;99.90;;;;;;5198037;28;20278;-48
2023/09/30 06:02:05;;;;;;;5.50;2.60;;;14.40;99.90;;;;;;5195127;28;20184;-49
2023/09/30 06:04:36;;;;;;;9.87;4.07;;;14.70;99.90;;;;;;5214750;28;20619;-49
2023/09/30 06:07:08;;;;;;;7.77;4.50;;;14.90;99.90;;;;;;5196874;28;20437;-51
2023/09/30 06:09:38;;;;;;;9.80;4.33;;;15.20;99.90;;;;;;5196288;28;20257;-48
2023/09/30 06:12:11;;;;;;;10.57;4.40;;;15.50;99.90;;;;;;5199470;28;20469;-50
2023/09/30 06:14:43;;;;;;;8.23;4.20;;;15.90;99.90;;;;;;5200444;28;20186;-47
2023/09/30 06:17:14;;;;;;;11.07;3.80;;;16.40;99.90;;;;;;5204676;28;20459;-48
2023/09/30 06:19:45;;;;;;;6.43;3.10;;;17.60;99.90;;;;;;5200428;28;20453;-49
2023/09/30 06:22:16;;;;;;;12.23;4.20;;;18.70;99.90;;;;;;5195470;28;20439;-48
2023/09/30 06:24:48;;;;;;;12.57;4.07;;;20.20;99.90;;;;;;5195347;28;20208;-48
2023/09/30 06:27:18;;;;;;;10.13;2.83;;;21.20;99.90;;;;;;5198809;28;20233;-47
2023/09/30 06:29:49;;;;;;;7.23;3.73;;;21.30;99.90;;;;;;5198433;28;20446;-52
2023/09/30 06:32:20;;;;;;;9.80;3.23;;;20.50;99.90;;;;;;5199931;28;20188;-48
2023/09/30 06:34:52;;;;;;;20.47;3.97;;;19.70;99.90;;;;;;5202119;28;20172;-50
2023/09/30 06:37:26;;;;;;;10.67;3.60;;;19.10;99.90;;;;;;5201176;28;20225;-53
2023/09/30 06:39:57;;;;;;;13.37;3.27;;;18.30;99.90;;;;;;5201205;28;20454;-48
2023/09/30 06:42:28;;;;;;;8.70;3.87;;;17.50;99.90;;;;;;5193311;28;20461;-48
2023/09/30 06:44:59;;;;;;;7.40;2.30;;;16.90;99.90;;;;;;5204611;28;20675;-52
2023/09/30 06:47:33;;;;;;;16.90;4.50;;;16.50;99.90;;;;;;5196799;28;20487;-48
2023/09/30 06:50:08;;;;;;;11.70;3.30;;;16.20;99.90;;;;;;5189415;28;20221;-51
2023/09/30 06:52:41;;;;;;;8.80;4.30;;;16.20;99.90;;;;;;5198491;28;20464;-48
2023/09/30 06:55:16;;;;;;;6.17;3.20;;;16.30;99.90;;;;;;5200568;28;20963;-47
2023/09/30 06:57:47;;;;;;;10.53;2.97;;;16.50;99.90;;;;;;5198007;28;20446;-49
2023/09/30 07:00:17;;;;;;;12.67;4.43;;;17.00;99.90;;;;;;5194199;28;20505;-49
2023/09/30 07:02:49;;;;;;;12.60;3.73;;;17.70;99.90;;;;;;5204404;28;20190;-48
2023/09/30 07:05:20;;;;;;;10.00;3.33;;;18.60;99.90;;;;;;5204644;28;20192;-48
2023/09/30 07:07:51;;;;;;;11.97;3.70;;;18.90;99.90;;;;;;5199904;28;20475;-51
2023/09/30 07:10:21;;;;;;;11.63;3.20;;;18.70;99.90;;;;;;5197729;28;20211;-48
2023/09/30 07:12:52;;;;;;;8.10;3.20;;;18.40;99.90;;;;;;5202898;28;20520;-50
2023/09/30 07:15:23;;;;;;;12.70;3.50;;;18.50;99.90;;;;;;5197082;28;20199;-50
2023/09/30 07:17:53;;;;;;;11.77;3.27;;;18.50;99.90;;;;;;5197278;28;20180;-49
2023/09/30 07:20:24;;;;;;;9.63;2.97;;;19.00;99.90;;;;;;5194626;28;20226;-50
2023/09/30 07:22:55;;;;;;;6.23;2.87;;;19.80;99.90;;;;;;5199956;28;20684;-49
2023/09/30 07:25:26;;;;;;;11.73;3.50;;;20.10;99.90;;;;;;5201252;28;20271;-49
2023/09/30 07:27:58;;;;;;;13.00;3.50;;;19.80;99.90;;;;;;5198850;28;20184;-49
2023/09/30 07:30:29;;;;;;;13.10;3.77;;;19.50;99.90;;;;;;5200795;28;20203;-51
2023/09/30 07:32:59;;;;;;;13.93;3.90;;;19.00;99.90;;;;;;5200338;28;20453;-50
2023/09/30 07:35:30;;;;;;;9.50;2.80;;;19.10;99.90;;;;;;5192500;28;20211;-53
2023/09/30 07:38:01;;;;;;;14.37;3.37;;;19.20;99.90;;;;;;5196612;28;20202;-51
2023/09/30 07:40:32;;;;;;;8.07;3.47;;;19.10;99.90;;;;;;5196434;28;20255;-48
2023/09/30 07:43:03;;;;;;;14.83;4.07;;;18.90;99.90;;;;;;5197526;28;20436;-50
2023/09/30 07:45:34;;;;;;;11.40;4.00;;;18.60;99.90;;;;;;5199119;28;20426;-47
2023/09/30 07:48:09;;;;;;;8.37;3.27;;;18.40;99.90;;;;;;5199250;28;20431;-48
2023/09/30 07:50:40;;;;;;;15.20;3.90;;;18.10;99.90;;;;;;5199893;28;20203;-48
2023/09/30 07:53:12;;;;;;;6.60;2.80;;;18.00;99.90;;;;;;5194277;28;20473;-49
2023/09/30 07:55:43;;;;;;;8.07;3.17;;;17.70;99.90;;;;;;5197974;28;20480;-50
2023/09/30 07:58:14;;;;;;;13.80;3.80;;;17.50;99.90;;;;;;5199538;28;20443;-50
2023/09/30 08:00:45;;;;;;;12.20;3.30;;;17.40;99.90;;;;;;5200416;28;20471;-49
2023/09/30 08:03:16;;;;;;;9.63;3.07;;;17.10;99.90;;;;;;5199137;28;20450;-49
2023/09/30 08:05:47;;;;;;;14.23;4.43;;;16.80;99.90;;;;;;5197122;28;20441;-50
2023/09/30 08:08:17;;;;;;;8.03;3.10;;;16.70;99.90;;;;;;5203430;28;20443;-51
2023/09/30 08:10:48;;;;;;;15.13;3.17;;;16.50;99.90;;;;;;5199242;28;20222;-47
2023/09/30 08:13:19;;;;;;;10.03;2.73;;;16.40;99.90;;;;;;5197812;28;20184;-49
2023/09/30 08:15:51;;;;;;;10.27;3.60;;;16.40;99.90;;;;;;5192588;28;20205;-49
2023/09/30 08:18:22;;;;;;;14.30;4.03;;;16.50;99.90;;;;;;5196548;28;20259;-48
2023/09/30 08:20:52;;;;;;;14.27;4.20;;;16.60;99.90;;;;;;5211116;28;20550;-51
2023/09/30 08:23:23;;;;;;;10.97;3.23;;;16.70;99.90;;;;;;5195752;28;20215;-51
2023/09/30 08:25:58;;;;;;;15.93;3.50;;;16.90;99.90;;;;;;5195894;28;20188;-52
2023/09/30 08:28:29;;;;;;;9.73;3.70;;;17.30;99.90;;;;;;5199725;28;20179;-49
2023/09/30 08:31:05;;;;;;;11.33;3.13;;;17.60;99.90;;;;;;5206665;28;20534;-52
2023/09/30 08:33:36;;;;;;;8.47;3.03;;;17.90;99.90;;;;;;5200837;28;20202;-50
2023/09/30 08:36:08;;;;;;;17.33;3.90;;;18.20;99.90;;;;;;5198707;28;20419;-50
2023/09/30 08:38:40;;;;;;;14.50;3.77;;;18.30;99.90;;;;;;5200146;28;20330;-50
2023/09/30 08:41:25;;;;;;;9.13;3.20;;;18.40;99.90;;;;;;5203617;28;20482;-50
2023/09/30 08:43:59;;;;;;;9.33;3.40;;;18.20;99.90;;;;;;5203616;28;20443;-49
2023/09/30 08:46:34;;;;;;;9.97;2.83;;;18.10;99.90;;;;;;5199011;28;20780;-53
2023/09/30 08:49:08;;;;;;;14.00;4.00;;;18.00;99.90;;;;;;5180865;28;20455;-47
2023/09/30 08:51:39;;;;;;;16.40;3.30;;;18.10;99.90;;;;;;5197561;28;20501;-49
2023/09/30 08:54:10;;;;;;;14.13;3.80;;;18.20;99.90;;;;;;5193720;28;20466;-51
2023/09/30 08:56:43;;;;;;;7.43;2.90;;;18.40;99.90;;;;;;5196435;28;20190;-48
2023/09/30 08:59:15;;;;;;;11.03;4.10;;;18.40;99.90;;;;;;5198213;28;20215;-54
2023/09/30 09:01:45;;;;;;;11.63;3.40;;;18.30;99.90;;;;;;5195869;28;20438;-47
2023/09/30 09:04:16;;;;;;;6.60;2.67;;;18.20;99.90;;;;;;5196004;28;20490;-48
2023/09/30 09:06:47;;;;;;;8.83;3.03;;;18.10;99.90;;;;;;5198033;28;20180;-50
2023/09/30 09:09:19;;;;;;;4.20;2.07;;;18.20;99.90;;;;;;5198913;28;20461;-48
2023/09/30 09:11:50;;;;;;;9.13;3.70;;;18.40;99.90;;;;;;5197320;28;20676;-49
2023/09/30 09:14:40;;;;;;;9.17;3.17;;;18.50;99.90;;;;;;5197839;28;20439;-53
2023/09/30 09:17:11;;;;;;;7.53;2.23;;;18.50;99.90;;;;;;5193605;28;20453;-51
2023/09/30 09:19:42;;;;;;;12.00;3.70;;;18.50;99.90;;;;;;5185047;28;20459;-51
2023/09/30 09:22:13;;;;;;;8.43;3.10;;;18.40;99.90;;;;;;5195692;28;20504;-49
2023/09/30 09:24:46;;;;;;;9.97;3.20;;;18.20;99.90;;;;;;5201435;28;20222;-48
2023/09/30 09:27:19;;;;;;;10.20;2.87;;;18.20;99.90;;;;;;5203890;28;20184;-49
2023/09/30 09:29:50;;;;;;;7.60;2.50;;;18.10;99.90;;;;;;5197632;28;20875;-48
2023/09/30 09:32:21;;;;;;;12.77;2.77;;;18.10;99.90;;;;;;5196236;28;20466;-48
2023/09/30 09:35:01;;;;;;;11.47;3.43;;;18.10;99.90;;;;;;5192157;28;20176;-51
2023/09/30 09:37:32;;;;;;;7.70;2.50;;;18.20;99.90;;;;;;5198620;28;20172;-50
2023/09/30 09:40:03;;;;;;;14.63;3.20;;;18.40;99.90;;;;;;5198394;28;20497;-49
2023/09/30 09:42:34;;;;;;;9.30;3.30;;;18.50;99.90;;;;;;5196782;28;20176;-49
2023/09/30 09:45:06;;;;;;;12.67;3.27;;;18.40;99.90;;;;;;5191946;28;20450;-51
2023/09/30 09:47:36;;;;;;;7.50;3.00;;;18.40;99.90;;;;;;5196669;28;20641;-49
2023/09/30 09:50:08;;;;;;;8.70;2.73;;;18.30;99.90;;;;;;5199672;28;20450;-48
2023/09/30 09:52:41;;;;;;;7.20;2.93;;;18.40;99.90;;;;;;5190551;28;20172;-50
2023/09/30 09:55:15;;;;;;;7.87;2.50;;;18.50;99.90;;;;;;5188746;28;20793;-51
2023/09/30 09:57:46;;;;;;;12.47;3.50;;;18.70;99.90;;;;;;5194056;28;20427;-49
2023/09/30 10:00:25;;;;;;;6.50;2.27;;;18.80;99.90;;;;;;5198107;28;20954;-51
2023/09/30 10:02:56;;;;;;;8.13;2.63;;;19.00;99.90;;;;;;5207354;28;20442;-51
2023/09/30 10:05:29;;;;;;;12.40;3.03;;;19.00;99.90;;;;;;5198939;28;20461;-50
2023/09/30 10:08:01;;;;;;;14.00;2.87;;;19.00;99.90;;;;;;5204529;28;20429;-50
2023/09/30 10:10:37;;;;;;;6.37;2.30;;;19.10;99.90;;;;;;5199386;28;20507;-49
2023/09/30 10:13:07;;;;;;;6.57;2.57;;;19.00;99.90;;;;;;5193212;28;20434;-50
2023/09/30 10:15:40;;;;;;;8.40;2.10;;;18.90;99.90;;;;;;5196891;28;20435;-48
2023/09/30 10:18:11;;;;;;;12.33;3.50;;;19.00;99.90;;;;;;5193938;28;20198;-54
2023/09/30 10:20:48;;;;;;;11.93;3.17;;;19.20;99.90;;;;;;5196044;28;20525;-53
2023/09/30 10:23:27;;;;;;;9.60;2.17;;;19.20;99.90;;;;;;5191324;28;20449;-52
2023/09/30 10:26:13;;;;;;;5.30;2.60;;;19.30;99.90;;;;;;5197747;28;20430;-54
2023/09/30 10:28:50;;;;;;;5.20;2.43;;;19.30;99.90;;;;;;5191798;28;20553;-51
2023/09/30 10:31:24;;;;;;;5.93;2.20;;;19.30;99.90;;;;;;5200105;28;20549;-49
2023/09/30 10:34:01;;;;;;;4.07;2.03;;;19.20;99.90;;;;;;5192363;28;20782;-50
2023/09/30 10:36:34;;;;;;;4.90;2.13;;;19.30;99.90;;;;;;5192286;28;20431;-49
2023/09/30 10:39:12;;;;;;;10.23;2.07;;;19.30;99.90;;;;;;5197378;28;20451;-48
2023/09/30 10:41:46;;;;;;;8.20;1.70;;;19.20;99.90;;;;;;5200068;28;21042;-49
2023/09/30 10:44:22;;;;;;;8.70;2.07;;;19.50;99.90;;;;;;5200052;28;20521;-52
2023/09/30 10:47:00;;;;;;;9.13;2.27;;;19.60;99.90;;;;;;5196363;28;20494;-51
2023/09/30 10:49:31;;;;;;;8.83;2.27;;;19.80;99.90;;;;;;5199250;28;20970;-49
2023/09/30 10:52:02;;;;;;;11.37;2.57;;;20.00;99.40;;;;;;5197774;28;21001;-49
2023/09/30 10:54:33;;;;;;;12.73;4.70;;;19.80;99.10;;;;;;5201929;28;20517;-52
2023/09/30 10:57:04;;;;;;;6.80;2.70;;;19.70;98.90;;;;;;5198008;28;20191;-53
2023/09/30 10:59:35;;;;;;;9.17;2.83;;;19.60;98.80;;;;;;5202675;28;20598;-49
2023/09/30 11:02:19;;;;;;;3.27;1.90;;;19.40;99.40;;;;;;5204354;28;20532;-50
2023/09/30 11:04:50;;;;;;;10.40;2.50;;;19.40;99.50;;;;;;5204958;28;20184;-50
2023/09/30 11:07:24;;;;;;;6.73;2.33;;;19.60;99.00;;;;;;5200917;28;20849;-50
2023/09/30 11:09:55;;;;;;;8.93;2.83;;;19.70;98.30;;;;;;5199262;28;20227;-53
2023/09/30 11:12:26;;;;;;;7.00;2.00;;;19.80;98.20;;;;;;5205626;28;20938;-51
2023/09/30 11:15:02;;;;;;;4.77;2.10;;;19.90;97.70;;;;;;5202032;28;20431;-49
2023/09/30 11:17:33;;;;;;;5.77;2.63;;;20.00;97.00;;;;;;5201564;28;20202;-51
2023/09/30 11:20:06;;;;;;;11.43;2.73;;;20.00;96.70;;;;;;5193313;28;20931;-49
2023/09/30 11:22:37;;;;;;;4.33;2.10;;;20.10;95.90;;;;;;5208942;28;20218;-50
2023/09/30 11:25:18;;;;;;;9.30;2.27;;;20.40;96.00;;;;;;5192341;28;20474;-50
2023/09/30 11:27:49;;;;;;;9.20;2.70;;;20.40;94.70;;;;;;5215929;28;20426;-49
2023/09/30 11:30:20;;;;;;;7.50;2.17;;;20.20;95.00;;;;;;5201219;28;20498;-53
2023/09/30 11:32:59;;;;;;;11.13;2.97;;;20.00;95.50;;;;;;5200390;28;20198;-50
2023/09/30 11:35:30;;;;;;;8.23;2.83;;;19.70;95.80;;;;;;5204612;28;20179;-48
2023/09/30 11:38:01;;;;;;;17.00;6.13;;;19.60;96.30;;;;;;5200117;28;20452;-52
2023/09/30 11:40:33;;;;;;;14.50;5.00;;;19.40;96.20;;;;;;5200860;28;20203;-50
2023/09/30 11:43:11;;;;;;;15.00;2.70;;;19.30;96.20;;;;;;5201354;28;20418;-50
2023/09/30 11:45:41;;;;;;;16.30;7.47;;;19.10;96.70;;;;;;5190045;28;20478;-49
2023/09/30 11:48:21;;;;;;;16.40;3.80;;;18.80;97.60;;;;;;5201852;28;20446;-48
2023/09/30 11:50:52;;;;;;;5.20;2.20;;;18.70;98.00;;;;;;5197923;28;20231;-51
2023/09/30 11:53:24;;;;;;;15.13;2.83;;;18.50;97.90;;;;;;5201455;28;20434;-51
2023/09/30 11:55:56;;;;;;;4.30;1.53;;;18.40;98.50;;;;;;5199878;28;20435;-49
2023/09/30 11:58:27;;;;;;;10.20;2.80;;;18.40;97.60;;;;;;5198844;28;20519;-51
2023/09/30 12:01:00;;;;;;;8.90;2.00;;;18.30;97.50;;;;;;5197145;28;20533;-51
2023/09/30 12:03:31;;;;;;;3.23;2.00;;;18.40;97.40;;;;;;5196642;28;20192;-49
2023/09/30 12:06:02;;;;;;;12.03;3.70;;;18.30;97.60;;;;;;5201148;28;20442;-50
2023/09/30 12:08:32;;;;;;;5.57;2.37;;;18.30;97.50;;;;;;5198078;28;20191;-52
2023/09/30 12:11:04;;;;;;;13.90;3.13;;;18.30;97.40;;;;;;5199133;28;20212;-53
2023/09/30 12:13:34;;;;;;;10.40;3.00;;;18.30;97.20;;;;;;5180138;28;20176;-52
2023/09/30 12:16:05;;;;;;;6.47;2.80;;;18.20;97.40;;;;;;5198347;28;20521;-56
2023/09/30 12:18:36;;;;;;;7.67;2.30;;;18.20;97.80;;;;;;5197714;28;20189;-52
2023/09/30 12:21:10;;;;;;;11.87;6.03;;;18.20;97.50;;;;;;5197876;28;20188;-53
2023/09/30 12:23:41;;;;;;;8.20;2.90;;;18.20;97.70;;;;;;5198412;28;20190;-53
2023/09/30 12:26:12;;;;;;;6.10;2.20;;;18.30;98.00;;;;;;5203155;28;20438;-49
2023/09/30 12:28:43;;;;;;;7.47;3.40;;;18.50;97.80;;;;;;5201218;28;20460;-50
2023/09/30 12:31:15;;;;;;;14.40;2.90;;;18.60;97.60;;;;;;5198412;28;20224;-50
2023/09/30 12:33:50;;;;;;;1.80;1.53;;;18.70;97.10;;;;;;5214870;28;20951;-49
2023/09/30 12:36:24;;;;;;;7.53;2.50;;;18.70;96.90;;;;;;5198575;28;20442;-50
2023/09/30 12:38:55;;;;;;;12.43;2.50;;;18.70;97.00;;;;;;5200026;28;20821;-52
2023/09/30 12:41:25;;;;;;;12.83;2.70;;;18.80;96.90;;;;;;5198811;28;20439;-49
2023/09/30 12:43:56;;;;;;;3.43;1.90;;;18.80;97.00;;;;;;5201180;28;20243;-51
2023/09/30 12:46:27;;;;;;;4.13;1.40;;;18.90;96.80;;;;;;5196856;28;20295;-50
2023/09/30 12:48:58;;;;;;;6.07;2.20;;;18.90;96.40;;;;;;5206215;28;20540;-48
2023/09/30 12:51:30;;;;;;;12.03;2.30;;;18.90;96.20;;;;;;5202320;28;20489;-50
2023/09/30 12:54:02;;;;;;;3.80;2.17;;;18.80;95.50;;;;;;5202684;28;20585;-51
2023/09/30 12:56:33;;;;;;;4.27;1.77;;;18.80;96.10;;;;;;5202734;28;20434;-49
2023/09/30 12:59:04;;;;;;;3.90;2.07;;;18.80;95.60;;;;;;5197684;28;20474;-51
2023/09/30 13:01:35;;;;;;;7.87;1.97;;;18.90;95.40;;;;;;5198701;28;20465;-50
2023/09/30 13:04:08;;;;;;;9.97;2.53;;;18.80;94.80;;;;;;5196711;28;20529;-49
2023/09/30 13:06:38;;;;;;;8.97;2.27;;;18.70;95.10;;;;;;5199559;28;20443;-50